Stockholm, Maine
Current Conditions -  °F | °C
As of 4:54 AM on Sunday 23 Nov 2014 (Local Time) from KCAR Reporting Station
Overcast Overcast  
Wind Chill: -2°   Ceiling: 6000
Heat Index:   Visibility: 10mi
Dew Point: -3°   Wind: 6mph
Humidity: 78%   Direction: 240°WSW
Pressure: 29.83"   Gusts: NA
Location:  47.04°N, 68.14°W
Report Text: KCAR 230954Z AUTO 24005KT 10SM SCT048 BKN060 OVC100 01/M03 A2983 RMK AO2 SLP111 T00061028
Loading
Personal Weather Stations






























Interactive Weather Map New forecast layout! Learn more

10-Day Weather Forecast

Advertisements
Track Severe Weather on mobile